Time,TemperatureF,DewpointF,PressureIn,WindDirection,WindDirectionDegrees,WindSpeedMPH,WindSpeedGustMPH,Humidity,HourlyPrecipIn,Conditions,Clouds,dailyrainin,SolarRadiationWatts/m^2,SoftwareType,DateUTC
2013-04-18 00:00:00,68.0,60.0,30.04,ESE,119,6.0,-999.0,77,-99.99,,,-99.99,0.290000,,2013-04-18 05:00:00,
2013-04-18 00:52:00,68.0,60.0,30.04,ESE,119,6.0,-999.0,77,-99.99,,,-99.99,0.290000,,2013-04-18 05:52:00,
2013-04-18 03:00:00,63.0,59.0,30.01,ESE,104,2.0,-999.0,87,-99.99,,,-99.99,0.000000,,2013-04-18 08:00:00,
2013-04-18 03:52:00,63.0,59.0,30.01,ESE,104,2.0,-999.0,87,-99.99,,,-99.99,0.000000,,2013-04-18 08:52:00,
2013-04-18 04:00:00,65.0,61.0,30.01,WSW,245,3.0,-999.0,88,-99.99,,,-99.99,0.000000,,2013-04-18 09:00:00,
2013-04-18 04:53:00,65.0,61.0,30.01,WSW,245,3.0,-999.0,88,-99.99,,,-99.99,0.000000,,2013-04-18 09:53:00,
2013-04-18 05:00:00,62.0,59.0,30.01,WSW,256,4.0,-999.0,91,-99.99,,,-99.99,0.000000,,2013-04-18 10:00:00,
2013-04-18 05:52:00,62.0,59.0,30.01,WSW,256,4.0,-999.0,91,-99.99,,,-99.99,0.000000,,2013-04-18 10:52:00,
2013-04-18 06:00:00,63.0,60.0,30.01,NE,51,3.0,-999.0,89,-99.99,,,-99.99,0.080000,,2013-04-18 11:00:00,
2013-04-18 06:52:00,63.0,60.0,30.01,NE,51,3.0,-999.0,89,-99.99,,,-99.99,0.080000,,2013-04-18 11:52:00,
2013-04-18 07:00:00,65.0,59.0,30.03,NE,55,4.0,-999.0,81,-99.99,,,-99.99,27.440001,,2013-04-18 12:00:00,
2013-04-18 07:52:00,65.0,59.0,30.03,NE,55,4.0,-999.0,81,-99.99,,,-99.99,27.440001,,2013-04-18 12:52:00,
2013-04-18 08:00:00,68.0,60.0,30.03,NE,49,3.0,-999.0,77,-99.99,,,-99.99,173.500000,,2013-04-18 13:00:00,
2013-04-18 08:53:00,68.0,60.0,30.03,NE,49,3.0,-999.0,77,-99.99,,,-99.99,173.500000,,2013-04-18 13:53:00,
2013-04-18 09:00:00,71.0,58.0,30.04,SW,227,4.0,-999.0,65,-99.99,,,-99.99,356.799988,,2013-04-18 14:00:00,
2013-04-18 09:52:00,71.0,58.0,30.04,SW,227,4.0,-999.0,65,-99.99,,,-99.99,356.799988,,2013-04-18 14:52:00,
2013-04-18 10:00:00,73.0,57.0,30.03,SSW,194,6.0,-999.0,58,-99.99,,,-99.99,576.400024,,2013-04-18 15:00:00,
2013-04-18 10:53:00,73.0,57.0,30.03,SSW,194,6.0,-999.0,58,-99.99,,,-99.99,576.400024,,2013-04-18 15:53:00,
2013-04-18 11:00:00,76.0,58.0,30.02,SSW,202,5.0,-999.0,54,-99.99,,,-99.99,727.000000,,2013-04-18 16:00:00,
2013-04-18 11:53:00,76.0,58.0,30.02,SSW,202,5.0,-999.0,54,-99.99,,,-99.99,727.000000,,2013-04-18 16:53:00,
2013-04-18 12:00:00,77.0,57.0,29.98,South,184,7.0,-999.0,51,-99.99,,,-99.99,947.000000,,2013-04-18 17:00:00,
2013-04-18 12:52:00,77.0,57.0,29.98,South,184,7.0,-999.0,51,-99.99,,,-99.99,947.000000,,2013-04-18 17:52:00,
2013-04-18 13:00:00,77.0,57.0,29.96,SSW,210,7.0,-999.0,49,-99.99,,,-99.99,618.299988,,2013-04-18 18:00:00,
2013-04-18 13:52:00,77.0,57.0,29.96,SSW,210,7.0,-999.0,49,-99.99,,,-99.99,618.299988,,2013-04-18 18:52:00,
2013-04-18 14:00:00,79.0,54.0,29.95,SSW,201,8.0,-999.0,42,-99.99,,,-99.99,556.200012,,2013-04-18 19:00:00,
2013-04-18 14:53:00,79.0,54.0,29.95,SSW,201,8.0,-999.0,42,-99.99,,,-99.99,556.200012,,2013-04-18 19:53:00,
2013-04-18 15:00:00,81.0,52.0,29.92,SSW,199,9.0,-999.0,37,-99.99,,,-99.99,706.000000,,2013-04-18 20:00:00,
2013-04-18 15:52:00,81.0,52.0,29.92,SSW,199,9.0,-999.0,37,-99.99,,,-99.99,706.000000,,2013-04-18 20:52:00,
2013-04-18 16:00:00,81.0,53.0,29.91,SSW,211,9.0,-999.0,38,-99.99,,,-99.99,614.000000,,2013-04-18 21:00:00,
2013-04-18 16:53:00,81.0,53.0,29.91,SSW,211,9.0,-999.0,38,-99.99,,,-99.99,614.000000,,2013-04-18 21:53:00,
2013-04-18 17:00:00,80.0,54.0,29.88,SW,216,10.0,-999.0,41,-99.99,,,-99.99,309.700012,,2013-04-18 22:00:00,
2013-04-18 17:52:00,80.0,54.0,29.88,SW,216,10.0,-999.0,41,-99.99,,,-99.99,309.700012,,2013-04-18 22:52:00,
2013-04-18 18:00:00,78.0,54.0,29.87,SSW,212,9.0,-999.0,44,-99.99,,,-99.99,150.300003,,2013-04-18 23:00:00,
2013-04-18 18:52:00,78.0,54.0,29.87,SSW,212,9.0,-999.0,44,-99.99,,,-99.99,150.300003,,2013-04-18 23:52:00,
2013-04-18 19:00:00,76.0,56.0,29.85,SW,222,7.0,-999.0,50,-99.99,,,-99.99,44.040001,,2013-04-19 00:00:00,
2013-04-18 19:52:00,76.0,56.0,29.85,SW,222,7.0,-999.0,50,-99.99,,,-99.99,44.040001,,2013-04-19 00:52:00,
2013-04-18 20:00:00,75.0,57.0,29.85,SW,234,5.0,-999.0,54,-99.99,,,-99.99,1.900000,,2013-04-19 01:00:00,
2013-04-18 20:52:00,75.0,57.0,29.85,SW,234,5.0,-999.0,54,-99.99,,,-99.99,1.900000,,2013-04-19 01:52:00,
2013-04-18 21:00:00,74.0,58.0,29.82,North,354,4.0,-999.0,57,-99.99,,,-99.99,0.000000,,2013-04-19 02:00:00,
2013-04-18 21:52:00,74.0,58.0,29.82,North,354,4.0,-999.0,57,-99.99,,,-99.99,0.000000,,2013-04-19 02:52:00,
2013-04-18 22:00:00,74.0,59.0,29.80,East,93,5.0,-999.0,59,-99.99,,,-99.99,252.399994,,2013-04-19 03:00:00,
2013-04-18 22:53:00,74.0,59.0,29.80,East,93,5.0,-999.0,59,-99.99,,,-99.99,252.399994,,2013-04-19 03:53:00,
2013-04-18 23:00:00,74.0,61.0,29.77,WSW,239,6.0,-999.0,64,-99.99,,,-99.99,76.400002,,2013-04-19 04:00:00,
2013-04-18 23:52:00,74.0,61.0,29.77,WSW,239,6.0,-999.0,64,-99.99,,,-99.99,76.400002,,2013-04-19 04:52:00,